sensor_id;sensor_type;location;lat;lon;timestamp;pressure;altitude;pressure_sealevel;temperature;humidity
49216;BME280;45943;53.148;8.204;2023-04-04T00:01:37;103244.28;;;9.40;50.12
49216;BME280;45943;53.148;8.204;2023-04-04T00:04:03;103240.84;;;9.37;50.28
49216;BME280;45943;53.148;8.204;2023-04-04T00:06:29;103239.97;;;9.36;50.57
49216;BME280;45943;53.148;8.204;2023-04-04T00:08:55;103241.00;;;9.32;50.59
49216;BME280;45943;53.148;8.204;2023-04-04T00:11:21;103239.31;;;9.30;50.68
49216;BME280;45943;53.148;8.204;2023-04-04T00:13:47;103245.56;;;9.30;50.24
49216;BME280;45943;53.148;8.204;2023-04-04T00:16:13;103246.59;;;9.26;50.66
49216;BME280;45943;53.148;8.204;2023-04-04T00:18:39;103235.06;;;9.24;50.85
49216;BME280;45943;53.148;8.204;2023-04-04T00:21:05;103237.72;;;9.24;50.75
49216;BME280;45943;53.148;8.204;2023-04-04T00:23:31;103239.53;;;9.24;50.54
49216;BME280;45943;53.148;8.204;2023-04-04T00:25:57;103232.38;;;9.24;50.43
49216;BME280;45943;53.148;8.204;2023-04-04T00:28:23;103226.25;;;9.20;50.69
49216;BME280;45943;53.148;8.204;2023-04-04T00:30:49;103229.00;;;9.19;50.68
49216;BME280;45943;53.148;8.204;2023-04-04T00:33:15;103223.72;;;9.17;50.43
49216;BME280;45943;53.148;8.204;2023-04-04T00:35:41;103222.91;;;9.15;50.57
49216;BME280;45943;53.148;8.204;2023-04-04T00:38:06;103225.59;;;9.14;50.80
49216;BME280;45943;53.148;8.204;2023-04-04T00:40:39;103231.94;;;9.11;50.73
49216;BME280;45943;53.148;8.204;2023-04-04T00:43:06;103226.66;;;9.10;50.64
49216;BME280;45943;53.148;8.204;2023-04-04T00:45:32;103227.53;;;9.10;50.59
49216;BME280;45943;53.148;8.204;2023-04-04T00:48:00;103222.25;;;9.09;50.46
49216;BME280;45943;53.148;8.204;2023-04-04T00:50:27;103219.78;;;9.03;50.73
49216;BME280;45943;53.148;8.204;2023-04-04T00:52:53;103217.28;;;8.98;50.85
49216;BME280;45943;53.148;8.204;2023-04-04T00:55:19;103214.66;;;8.97;50.55
49216;BME280;45943;53.148;8.204;2023-04-04T00:57:46;103213.78;;;8.96;50.83
49216;BME280;45943;53.148;8.204;2023-04-04T01:00:12;103204.91;;;8.94;51.00
49216;BME280;45943;53.148;8.204;2023-04-04T01:02:39;103208.56;;;8.91;50.59
49216;BME280;45943;53.148;8.204;2023-04-04T01:05:06;103209.69;;;8.86;50.81
49216;BME280;45943;53.148;8.204;2023-04-04T01:07:35;103206.34;;;8.79;50.77
49216;BME280;45943;53.148;8.204;2023-04-04T01:10:02;103201.13;;;8.75;51.02
49216;BME280;45943;53.148;8.204;2023-04-04T01:12:31;103187.94;;;8.70;51.02
49216;BME280;45943;53.148;8.204;2023-04-04T01:14:57;103194.34;;;8.66;51.28
49216;BME280;45943;53.148;8.204;2023-04-04T01:17:23;103195.22;;;8.65;51.53
49216;BME280;45943;53.148;8.204;2023-04-04T01:20:02;103192.72;;;8.60;51.33
49216;BME280;45943;53.148;8.204;2023-04-04T01:22:31;103182.22;;;8.56;51.52
49216;BME280;45943;53.148;8.204;2023-04-04T01:24:59;103179.72;;;8.50;51.72
49216;BME280;45943;53.148;8.204;2023-04-04T01:27:26;103183.59;;;8.41;52.12
49216;BME280;45943;53.148;8.204;2023-04-04T01:29:52;103186.22;;;8.43;51.91
49216;BME280;45943;53.148;8.204;2023-04-04T01:32:19;103188.88;;;8.43;51.98
49216;BME280;45943;53.148;8.204;2023-04-04T01:34:57;103189.94;;;8.39;52.04
49216;BME280;45943;53.148;8.204;2023-04-04T01:38:34;103187.34;;;8.34;52.09
49216;BME280;45943;53.148;8.204;2023-04-04T01:40:36;103184.84;;;8.29;52.54
49216;BME280;45943;53.148;8.204;2023-04-04T01:43:03;103186.47;;;8.35;52.50
49216;BME280;45943;53.148;8.204;2023-04-04T01:45:29;103181.03;;;8.38;52.51
49216;BME280;45943;53.148;8.204;2023-04-04T01:47:55;103182.88;;;8.36;52.36
49216;BME280;45943;53.148;8.204;2023-04-04T01:50:22;103174.25;;;8.26;52.40
49216;BME280;45943;53.148;8.204;2023-04-04T01:52:48;103176.22;;;8.21;52.21
49216;BME280;45943;53.148;8.204;2023-04-04T01:55:14;103165.69;;;8.17;52.86
49216;BME280;45943;53.148;8.204;2023-04-04T01:57:40;103172.78;;;8.18;53.01
49216;BME280;45943;53.148;8.204;2023-04-04T02:00:07;103171.06;;;8.15;52.87
49216;BME280;45943;53.148;8.204;2023-04-04T02:02:33;103168.50;;;8.12;52.71
49216;BME280;45943;53.148;8.204;2023-04-04T02:04:59;103173.03;;;8.10;52.65
49216;BME280;45943;53.148;8.204;2023-04-04T02:07:25;103168.59;;;8.09;52.80
49216;BME280;45943;53.148;8.204;2023-04-04T02:09:51;103173.94;;;8.09;53.34
49216;BME280;45943;53.148;8.204;2023-04-04T02:12:17;103169.47;;;8.10;53.73
49216;BME280;45943;53.148;8.204;2023-04-04T02:14:43;103166.78;;;8.10;53.69
49216;BME280;45943;53.148;8.204;2023-04-04T02:17:09;103161.34;;;8.13;53.50
49216;BME280;45943;53.148;8.204;2023-04-04T02:19:36;103157.09;;;8.07;53.61
49216;BME280;45943;53.148;8.204;2023-04-04T02:22:02;103169.53;;;8.08;53.48
49216;BME280;45943;53.148;8.204;2023-04-04T02:24:28;103172.25;;;8.07;53.77
49216;BME280;45943;53.148;8.204;2023-04-04T02:26:53;103163.66;;;7.97;53.71
49216;BME280;45943;53.148;8.204;2023-04-04T02:29:20;103176.28;;;7.92;53.97
49216;BME280;45943;53.148;8.204;2023-04-04T02:31:46;103174.53;;;7.91;54.54
49216;BME280;45943;53.148;8.204;2023-04-04T02:34:12;103158.56;;;7.89;54.24
49216;BME280;45943;53.148;8.204;2023-04-04T02:36:38;103160.31;;;7.90;54.36
49216;BME280;45943;53.148;8.204;2023-04-04T02:39:04;103169.31;;;7.88;54.14
49216;BME280;45943;53.148;8.204;2023-04-04T02:41:30;103163.09;;;7.87;54.33
49216;BME280;45943;53.148;8.204;2023-04-04T02:43:56;103167.56;;;7.87;54.01
49216;BME280;45943;53.148;8.204;2023-04-04T02:46:22;103166.69;;;7.85;54.63
49216;BME280;45943;53.148;8.204;2023-04-04T02:48:48;103172.09;;;7.83;54.85
49216;BME280;45943;53.148;8.204;2023-04-04T02:51:15;103159.63;;;7.84;54.62
49216;BME280;45943;53.148;8.204;2023-04-04T02:53:41;103161.47;;;7.82;54.93
49216;BME280;45943;53.148;8.204;2023-04-04T02:56:07;103156.13;;;7.82;55.07
49216;BME280;45943;53.148;8.204;2023-04-04T02:58:33;103151.75;;;7.79;54.78
49216;BME280;45943;53.148;8.204;2023-04-04T03:00:59;103147.47;;;7.73;54.83
49216;BME280;45943;53.148;8.204;2023-04-04T03:03:25;103151.06;;;7.72;55.04
49216;BME280;45943;53.148;8.204;2023-04-04T03:05:51;103150.31;;;7.69;55.15
49216;BME280;45943;53.148;8.204;2023-04-04T03:08:17;103149.38;;;7.70;55.30
49216;BME280;45943;53.148;8.204;2023-04-04T03:10:44;103145.78;;;7.71;55.37
49216;BME280;45943;53.148;8.204;2023-04-04T03:13:11;103144.97;;;7.69;55.63
49216;BME280;45943;53.148;8.204;2023-04-04T03:15:37;103143.25;;;7.66;55.60
49216;BME280;45943;53.148;8.204;2023-04-04T03:18:05;103141.50;;;7.65;55.93
49216;BME280;45943;53.148;8.204;2023-04-04T03:20:31;103138.88;;;7.64;55.42
49216;BME280;45943;53.148;8.204;2023-04-04T03:22:57;103131.94;;;7.58;55.10
49216;BME280;45943;53.148;8.204;2023-04-04T03:25:23;103131.19;;;7.53;55.43
49216;BME280;45943;53.148;8.204;2023-04-04T03:27:49;103125.97;;;7.50;55.29
49216;BME280;45943;53.148;8.204;2023-04-04T03:30:15;103124.22;;;7.49;55.50
49216;BME280;45943;53.148;8.204;2023-04-04T03:32:41;103126.88;;;7.49;55.28
49216;BME280;45943;53.148;8.204;2023-04-04T03:35:07;103120.69;;;7.47;55.90
49216;BME280;45943;53.148;8.204;2023-04-04T03:37:33;103121.72;;;7.43;55.40
49216;BME280;45943;53.148;8.204;2023-04-04T03:40:00;103120.69;;;7.47;55.55
49216;BME280;45943;53.148;8.204;2023-04-04T03:42:26;103119.69;;;7.51;55.53
49216;BME280;45943;53.148;8.204;2023-04-04T03:44:52;103121.56;;;7.49;55.82
49216;BME280;45943;53.148;8.204;2023-04-04T03:47:18;103111.88;;;7.45;55.30
49216;BME280;45943;53.148;8.204;2023-04-04T03:49:45;103109.34;;;7.40;55.35
49216;BME280;45943;53.148;8.204;2023-04-04T03:52:11;103114.69;;;7.40;55.58
49216;BME280;45943;53.148;8.204;2023-04-04T03:54:37;103115.56;;;7.41;55.54
49216;BME280;45943;53.148;8.204;2023-04-04T03:57:04;103121.69;;;7.44;55.48
49216;BME280;45943;53.148;8.204;2023-04-04T03:59:30;103118.94;;;7.47;56.17
49216;BME280;45943;53.148;8.204;2023-04-04T04:01:56;103125.16;;;7.48;56.17
49216;BME280;45943;53.148;8.204;2023-04-04T04:04:22;103116.28;;;7.46;56.19
49216;BME280;45943;53.148;8.204;2023-04-04T04:06:48;103120.84;;;7.42;56.54
49216;BME280;45943;53.148;8.204;2023-04-04T04:09:14;103118.28;;;7.39;56.29
49216;BME280;45943;53.148;8.204;2023-04-04T04:11:40;103115.69;;;7.36;56.48
49216;BME280;45943;53.148;8.204;2023-04-04T04:14:06;103115.66;;;7.38;56.62
49216;BME280;45943;53.148;8.204;2023-04-04T04:16:32;103114.63;;;7.42;56.58
49216;BME280;45943;53.148;8.204;2023-04-04T04:18:58;103117.31;;;7.42;56.65
49216;BME280;45943;53.148;8.204;2023-04-04T04:21:24;103119.06;;;7.43;56.48
49216;BME280;45943;53.148;8.204;2023-04-04T04:23:52;103122.53;;;7.45;57.32
49216;BME280;45943;53.148;8.204;2023-04-04T04:26:18;103118.13;;;7.44;56.77
49216;BME280;45943;53.148;8.204;2023-04-04T04:28:45;103125.31;;;7.42;56.62
49216;BME280;45943;53.148;8.204;2023-04-04T04:31:12;103123.53;;;7.42;57.08
49216;BME280;45943;53.148;8.204;2023-04-04T04:33:38;103128.81;;;7.44;56.87
49216;BME280;45943;53.148;8.204;2023-04-04T04:36:04;103122.50;;;7.46;56.15
49216;BME280;45943;53.148;8.204;2023-04-04T04:38:31;103120.63;;;7.50;55.95
49216;BME280;45943;53.148;8.204;2023-04-04T04:40:57;103120.69;;;7.48;56.25
49216;BME280;45943;53.148;8.204;2023-04-04T04:43:25;103118.94;;;7.46;56.07
49216;BME280;45943;53.148;8.204;2023-04-04T04:45:52;103119.88;;;7.45;55.78
49216;BME280;45943;53.148;8.204;2023-04-04T04:48:18;103124.50;;;7.40;55.70
49216;BME280;45943;53.148;8.204;2023-04-04T04:50:44;103126.34;;;7.38;55.87
49216;BME280;45943;53.148;8.204;2023-04-04T04:53:14;103119.28;;;7.35;56.42
49216;BME280;45943;53.148;8.204;2023-04-04T04:55:40;103120.25;;;7.33;56.25
49216;BME280;45943;53.148;8.204;2023-04-04T04:58:07;103123.97;;;7.27;56.08
49216;BME280;45943;53.148;8.204;2023-04-04T05:00:35;103123.09;;;7.27;56.74
49216;BME280;45943;53.148;8.204;2023-04-04T05:03:02;103127.69;;;7.23;56.43
49216;BME280;45943;53.148;8.204;2023-04-04T05:05:32;103129.56;;;7.19;56.84
49216;BME280;45943;53.148;8.204;2023-04-04T05:08:02;103137.44;;;7.24;56.99
49216;BME280;45943;53.148;8.204;2023-04-04T05:10:29;103127.44;;;7.31;56.97
49216;BME280;45943;53.148;8.204;2023-04-04T05:12:55;103130.78;;;7.37;56.63
49216;BME280;45943;53.148;8.204;2023-04-04T05:15:22;103138.78;;;7.39;56.52
49216;BME280;45943;53.148;8.204;2023-04-04T05:17:50;103132.50;;;7.40;56.83
49216;BME280;45943;53.148;8.204;2023-04-04T05:20:16;103136.09;;;7.39;56.80
49216;BME280;45943;53.148;8.204;2023-04-04T05:22:42;103148.53;;;7.40;56.74
49216;BME280;45943;53.148;8.204;2023-04-04T05:25:09;103156.53;;;7.40;57.15
49216;BME280;45943;53.148;8.204;2023-04-04T05:27:38;103146.75;;;7.40;56.70
49216;BME280;45943;53.148;8.204;2023-04-04T05:30:05;103145.03;;;7.38;57.00
49216;BME280;45943;53.148;8.204;2023-04-04T05:32:32;103147.88;;;7.32;56.97
49216;BME280;45943;53.148;8.204;2023-04-04T05:34:58;103152.41;;;7.30;56.97
49216;BME280;45943;53.148;8.204;2023-04-04T05:37:25;103147.94;;;7.30;57.18
49216;BME280;45943;53.148;8.204;2023-04-04T05:39:51;103147.06;;;7.30;57.31
49216;BME280;45943;53.148;8.204;2023-04-04T05:42:17;103152.47;;;7.27;57.06
49216;BME280;45943;53.148;8.204;2023-04-04T05:44:43;103147.13;;;7.27;57.05
49216;BME280;45943;53.148;8.204;2023-04-04T05:47:09;103148.09;;;7.24;57.28
49216;BME280;45943;53.148;8.204;2023-04-04T05:49:35;103144.63;;;7.22;57.39
49216;BME280;45943;53.148;8.204;2023-04-04T05:52:01;103148.06;;;7.26;57.30
49216;BME280;45943;53.148;8.204;2023-04-04T05:54:27;103150.66;;;7.29;57.82
49216;BME280;45943;53.148;8.204;2023-04-04T05:56:53;103155.88;;;7.32;57.19
49216;BME280;45943;53.148;8.204;2023-04-04T05:59:19;103151.28;;;7.37;56.90
49216;BME280;45943;53.148;8.204;2023-04-04T06:01:45;103155.66;;;7.39;57.28
49216;BME280;45943;53.148;8.204;2023-04-04T06:04:11;103155.41;;;7.47;57.19
49216;BME280;45943;53.148;8.204;2023-04-04T06:06:37;103155.19;;;7.55;57.25
49216;BME280;45943;53.148;8.204;2023-04-04T06:09:03;103153.22;;;7.61;56.92
49216;BME280;45943;53.148;8.204;2023-04-04T06:11:29;103154.91;;;7.64;56.89
49216;BME280;45943;53.148;8.204;2023-04-04T06:13:56;103152.09;;;7.68;56.08
49216;BME280;45943;53.148;8.204;2023-04-04T06:16:22;103155.44;;;7.75;55.80
49216;BME280;45943;53.148;8.204;2023-04-04T06:18:48;103154.66;;;7.71;56.03
49216;BME280;45943;53.148;8.204;2023-04-04T06:21:14;103160.28;;;7.62;57.30
49216;BME280;45943;53.148;8.204;2023-04-04T06:23:40;103153.97;;;7.65;56.90
49216;BME280;45943;53.148;8.204;2023-04-04T06:26:06;103160.94;;;7.70;56.47
49216;BME280;45943;53.148;8.204;2023-04-04T06:28:33;103160.41;;;7.59;56.65
49216;BME280;45943;53.148;8.204;2023-04-04T06:30:59;103166.03;;;7.50;57.42
49216;BME280;45943;53.148;8.204;2023-04-04T06:33:25;103171.44;;;7.47;57.68
49216;BME280;45943;53.148;8.204;2023-04-04T06:35:50;103161.41;;;7.55;57.30
49216;BME280;45943;53.148;8.204;2023-04-04T06:38:16;103167.38;;;7.63;56.98
49216;BME280;45943;53.148;8.204;2023-04-04T06:40:42;103172.50;;;7.71;56.37
49216;BME280;45943;53.148;8.204;2023-04-04T06:43:08;103166.50;;;7.63;56.35
49216;BME280;45943;53.148;8.204;2023-04-04T06:45:34;103165.03;;;7.53;56.31
49216;BME280;45943;53.148;8.204;2023-04-04T06:48:00;103164.22;;;7.51;56.98
49216;BME280;45943;53.148;8.204;2023-04-04T06:50:28;103161.44;;;7.54;56.88
49216;BME280;45943;53.148;8.204;2023-04-04T06:52:59;103160.53;;;7.55;56.69
49216;BME280;45943;53.148;8.204;2023-04-04T06:55:25;103155.28;;;7.52;56.85
49216;BME280;45943;53.148;8.204;2023-04-04T06:57:52;103156.25;;;7.49;56.53
49216;BME280;45943;53.148;8.204;2023-04-04T07:00:18;103158.25;;;7.42;57.11
49216;BME280;45943;53.148;8.204;2023-04-04T07:02:44;103159.88;;;7.46;57.57
49216;BME280;45943;53.148;8.204;2023-04-04T07:05:10;103165.03;;;7.53;58.02
49216;BME280;45943;53.148;8.204;2023-04-04T07:07:38;103160.47;;;7.28;57.74
49216;BME280;45943;53.148;8.204;2023-04-04T07:10:04;103166.16;;;7.45;57.55
49216;BME280;45943;53.148;8.204;2023-04-04T07:12:30;103157.56;;;7.64;56.90
49216;BME280;45943;53.148;8.204;2023-04-04T07:14:56;103158.22;;;7.72;56.27
49216;BME280;45943;53.148;8.204;2023-04-04T07:17:23;103151.44;;;7.32;54.87
49216;BME280;45943;53.148;8.204;2023-04-04T07:19:49;103150.97;;;7.47;56.49
49216;BME280;45943;53.148;8.204;2023-04-04T07:22:15;103149.78;;;7.56;55.24
49216;BME280;45943;53.148;8.204;2023-04-04T07:24:41;103151.81;;;7.78;55.03
49216;BME280;45943;53.148;8.204;2023-04-04T07:27:07;103142.28;;;7.97;54.27
49216;BME280;45943;53.148;8.204;2023-04-04T07:29:34;103144.53;;;8.09;53.80
49216;BME280;45943;53.148;8.204;2023-04-04T07:32:00;103136.56;;;8.08;53.73
49216;BME280;45943;53.148;8.204;2023-04-04T07:34:26;103148.09;;;7.82;54.09
49216;BME280;45943;53.148;8.204;2023-04-04T07:36:52;103143.69;;;7.81;54.46
49216;BME280;45943;53.148;8.204;2023-04-04T07:39:18;103139.22;;;7.81;53.40
49216;BME280;45943;53.148;8.204;2023-04-04T07:41:44;103148.56;;;7.66;53.96
49216;BME280;45943;53.148;8.204;2023-04-04T07:44:10;103143.06;;;7.72;54.53
49216;BME280;45943;53.148;8.204;2023-04-04T07:46:36;103135.16;;;7.96;54.12
49216;BME280;45943;53.148;8.204;2023-04-04T07:49:02;103129.31;;;8.11;53.22
49216;BME280;45943;53.148;8.204;2023-04-04T07:51:28;103137.22;;;8.14;52.67
49216;BME280;45943;53.148;8.204;2023-04-04T07:53:55;103138.88;;;8.18;53.10
49216;BME280;45943;53.148;8.204;2023-04-04T07:56:21;103130.91;;;7.90;52.39
49216;BME280;45943;53.148;8.204;2023-04-04T07:58:48;103133.22;;;8.27;52.32
49216;BME280;45943;53.148;8.204;2023-04-04T08:01:14;103137.81;;;8.50;52.72
49216;BME280;45943;53.148;8.204;2023-04-04T08:03:40;103133.94;;;8.59;52.06
49216;BME280;45943;53.148;8.204;2023-04-04T08:06:06;103132.94;;;8.86;51.84
49216;BME280;45943;53.148;8.204;2023-04-04T08:08:32;103135.56;;;8.88;51.47
49216;BME280;45943;53.148;8.204;2023-04-04T08:10:58;103133.16;;;8.80;51.31
49216;BME280;45943;53.148;8.204;2023-04-04T08:13:24;103137.03;;;8.97;50.65
49216;BME280;45943;53.148;8.204;2023-04-04T08:15:52;103134.22;;;9.23;51.76
49216;BME280;45943;53.148;8.204;2023-04-04T08:18:18;103128.22;;;9.40;51.16
49216;BME280;45943;53.148;8.204;2023-04-04T08:20:45;103131.53;;;9.46;49.44
49216;BME280;45943;53.148;8.204;2023-04-04T08:23:11;103132.63;;;8.94;48.86
49216;BME280;45943;53.148;8.204;2023-04-04T08:25:37;103136.91;;;9.00;49.22
49216;BME280;45943;53.148;8.204;2023-04-04T08:28:04;103128.66;;;9.06;49.07
49216;BME280;45943;53.148;8.204;2023-04-04T08:30:30;103133.81;;;9.10;48.20
49216;BME280;45943;53.148;8.204;2023-04-04T08:32:56;103133.41;;;8.98;48.40
49216;BME280;45943;53.148;8.204;2023-04-04T08:35:22;103125.56;;;9.16;48.77
49216;BME280;45943;53.148;8.204;2023-04-04T08:37:48;103122.56;;;9.47;48.85
49216;BME280;45943;53.148;8.204;2023-04-04T08:40:14;103126.41;;;9.40;48.68
49216;BME280;45943;53.148;8.204;2023-04-04T08:42:41;103110.53;;;9.36;49.14
49216;BME280;45943;53.148;8.204;2023-04-04T08:45:09;103109.97;;;9.49;49.22
49216;BME280;45943;53.148;8.204;2023-04-04T08:47:36;103100.63;;;9.60;48.42
49216;BME280;45943;53.148;8.204;2023-04-04T08:50:04;103106.09;;;10.00;48.65
49216;BME280;45943;53.148;8.204;2023-04-04T08:52:32;103109.97;;;10.15;48.57
49216;BME280;45943;53.148;8.204;2023-04-04T08:55:00;103108.06;;;10.17;48.68
49216;BME280;45943;53.148;8.204;2023-04-04T08:57:29;103106.72;;;10.07;48.61
49216;BME280;45943;53.148;8.204;2023-04-04T08:59:55;103105.19;;;10.23;48.50
49216;BME280;45943;53.148;8.204;2023-04-04T09:05:34;103115.69;;;10.48;47.76
49216;BME280;45943;53.148;8.204;2023-04-04T09:08:02;103107.19;;;10.59;48.13
49216;BME280;45943;53.148;8.204;2023-04-04T09:10:32;103112.81;;;10.73;48.48
49216;BME280;45943;53.148;8.204;2023-04-04T09:12:57;103117.97;;;10.57;47.48
49216;BME280;45943;53.148;8.204;2023-04-04T09:15:25;103107.03;;;9.99;48.10
49216;BME280;45943;53.148;8.204;2023-04-04T09:17:51;103107.00;;;10.21;47.26
49216;BME280;45943;53.148;8.204;2023-04-04T09:23:07;103106.31;;;10.58;48.00
49216;BME280;45943;53.148;8.204;2023-04-04T09:25:36;103095.88;;;10.52;45.73
49216;BME280;45943;53.148;8.204;2023-04-04T09:28:02;103096.78;;;10.72;45.89
49216;BME280;45943;53.148;8.204;2023-04-04T09:30:33;103100.00;;;10.59;45.24
49216;BME280;45943;53.148;8.204;2023-04-04T09:33:01;103091.22;;;10.56;45.57
49216;BME280;45943;53.148;8.204;2023-04-04T09:35:30;103088.41;;;10.39;44.44
49216;BME280;45943;53.148;8.204;2023-04-04T09:37:57;103095.91;;;10.90;42.79
49216;BME280;45943;53.148;8.204;2023-04-04T09:40:24;103092.91;;;11.16;42.50
49216;BME280;45943;53.148;8.204;2023-04-04T09:42:52;103100.00;;;11.17;41.76
49216;BME280;45943;53.148;8.204;2023-04-04T09:45:21;103092.38;;;11.46;42.51
49216;BME280;45943;53.148;8.204;2023-04-04T09:47:50;103088.47;;;11.53;42.49
49216;BME280;45943;53.148;8.204;2023-04-04T09:50:20;103087.63;;;11.70;42.38
49216;BME280;45943;53.148;8.204;2023-04-04T09:52:51;103083.25;;;11.86;42.04
49216;BME280;45943;53.148;8.204;2023-04-04T09:55:17;103085.75;;;11.91;41.53
49216;BME280;45943;53.148;8.204;2023-04-04T09:57:45;103094.34;;;11.80;41.90
49216;BME280;45943;53.148;8.204;2023-04-04T10:00:11;103089.31;;;11.72;41.44
49216;BME280;45943;53.148;8.204;2023-04-04T10:02:47;103094.47;;;11.58;41.65
49216;BME280;45943;53.148;8.204;2023-04-04T10:05:14;103100.50;;;11.63;40.36
49216;BME280;45943;53.148;8.204;2023-04-04T10:07:41;103097.66;;;11.85;40.49
49216;BME280;45943;53.148;8.204;2023-04-04T10:10:08;103104.59;;;11.53;39.17
49216;BME280;45943;53.148;8.204;2023-04-04T10:12:35;103102.75;;;11.72;39.07
49216;BME280;45943;53.148;8.204;2023-04-04T10:15:01;103097.22;;;11.75;39.03
49216;BME280;45943;53.148;8.204;2023-04-04T10:17:35;103088.66;;;11.67;39.00
49216;BME280;45943;53.148;8.204;2023-04-04T10:20:03;103089.28;;;11.91;38.87
49216;BME280;45943;53.148;8.204;2023-04-04T10:22:31;103086.31;;;12.65;39.41
49216;BME280;45943;53.148;8.204;2023-04-04T10:24:57;103079.34;;;12.78;39.02
49216;BME280;45943;53.148;8.204;2023-04-04T10:27:24;103067.47;;;12.65;38.46
49216;BME280;45943;53.148;8.204;2023-04-04T10:29:51;103079.63;;;12.89;38.39
49216;BME280;45943;53.148;8.204;2023-04-04T10:32:21;103064.50;;;13.20;39.19
49216;BME280;45943;53.148;8.204;2023-04-04T10:35:04;103072.94;;;12.97;37.19
49216;BME280;45943;53.148;8.204;2023-04-04T10:37:56;103063.06;;;13.13;37.93
49216;BME280;45943;53.148;8.204;2023-04-04T10:40:25;103066.16;;;13.38;38.87
49216;BME280;45943;53.148;8.204;2023-04-04T10:42:56;103061.63;;;13.23;36.02
49216;BME280;45943;53.148;8.204;2023-04-04T10:45:27;103060.22;;;13.32;35.48
49216;BME280;45943;53.148;8.204;2023-04-04T10:47:55;103045.59;;;13.52;36.37
49216;BME280;45943;53.148;8.204;2023-04-04T10:50:21;103043.34;;;13.44;36.05
49216;BME280;45943;53.148;8.204;2023-04-04T10:52:47;103050.19;;;13.02;36.57
49216;BME280;45943;53.148;8.204;2023-04-04T10:55:15;103051.81;;;12.56;36.27
49216;BME280;45943;53.148;8.204;2023-04-04T10:57:42;103048.59;;;12.82;36.46
49216;BME280;45943;53.148;8.204;2023-04-04T11:00:14;103045.13;;;12.96;36.29
49216;BME280;45943;53.148;8.204;2023-04-04T11:02:43;103044.31;;;13.43;34.76
49216;BME280;45943;53.148;8.204;2023-04-04T11:08:04;103037.09;;;14.33;35.27
49216;BME280;45943;53.148;8.204;2023-04-04T11:10:37;103035.50;;;14.15;35.65
49216;BME280;45943;53.148;8.204;2023-04-04T11:20:56;103023.81;;;14.00;33.05
49216;BME280;45943;53.148;8.204;2023-04-04T11:26:17;103017.47;;;14.01;33.51
49216;BME280;45943;53.148;8.204;2023-04-04T11:28:44;103020.25;;;14.00;32.69
49216;BME280;45943;53.148;8.204;2023-04-04T11:33:56;103012.19;;;14.14;31.35
49216;BME280;45943;53.148;8.204;2023-04-04T11:39:02;103014.81;;;14.30;32.96
49216;BME280;45943;53.148;8.204;2023-04-04T11:44:29;103009.09;;;14.50;32.56
49216;BME280;45943;53.148;8.204;2023-04-04T11:49:41;103011.19;;;13.87;32.40
49216;BME280;45943;53.148;8.204;2023-04-04T11:52:08;102998.69;;;13.70;33.21
49216;BME280;45943;53.148;8.204;2023-04-04T11:54:40;103000.66;;;14.26;32.88
49216;BME280;45943;53.148;8.204;2023-04-04T11:57:11;102999.69;;;14.84;32.65
49216;BME280;45943;53.148;8.204;2023-04-04T11:59:39;102997.69;;;14.45;32.78
49216;BME280;45943;53.148;8.204;2023-04-04T12:02:10;102977.84;;;14.60;32.35
49216;BME280;45943;53.148;8.204;2023-04-04T12:04:39;102978.38;;;15.21;32.27
49216;BME280;45943;53.148;8.204;2023-04-04T12:07:08;102978.03;;;15.67;33.26
49216;BME280;45943;53.148;8.204;2023-04-04T12:09:35;102976.44;;;15.64;31.58
49216;BME280;45943;53.148;8.204;2023-04-04T12:12:01;102971.50;;;15.30;31.70
49216;BME280;45943;53.148;8.204;2023-04-04T12:14:28;102974.16;;;15.71;31.42
49216;BME280;45943;53.148;8.204;2023-04-04T12:16:57;102963.69;;;16.30;31.76
49216;BME280;45943;53.148;8.204;2023-04-04T12:19:27;102961.66;;;15.29;31.30
49216;BME280;45943;53.148;8.204;2023-04-04T12:21:55;102963.16;;;14.79;31.93
49216;BME280;45943;53.148;8.204;2023-04-04T12:24:22;102957.16;;;14.88;32.73
49216;BME280;45943;53.148;8.204;2023-04-04T12:26:49;102956.06;;;14.90;31.66
49216;BME280;45943;53.148;8.204;2023-04-04T12:29:17;102958.94;;;14.46;32.48
49216;BME280;45943;53.148;8.204;2023-04-04T12:31:47;102944.03;;;14.82;31.98
49216;BME280;45943;53.148;8.204;2023-04-04T12:37:12;102927.34;;;15.56;32.06
49216;BME280;45943;53.148;8.204;2023-04-04T12:39:45;102928.28;;;16.20;30.94
49216;BME280;45943;53.148;8.204;2023-04-04T12:42:22;102926.88;;;15.64;30.88
49216;BME280;45943;53.148;8.204;2023-04-04T12:44:49;102921.97;;;15.02;31.52
49216;BME280;45943;53.148;8.204;2023-04-04T12:47:17;102918.78;;;15.49;31.87
49216;BME280;45943;53.148;8.204;2023-04-04T12:49:46;102923.31;;;15.76;32.48
49216;BME280;45943;53.148;8.204;2023-04-04T12:52:20;102908.44;;;16.45;32.80
49216;BME280;45943;53.148;8.204;2023-04-04T12:54:48;102907.38;;;17.08;30.78
49216;BME280;45943;53.148;8.204;2023-04-04T12:57:19;102908.47;;;17.65;30.34
49216;BME280;45943;53.148;8.204;2023-04-04T12:59:47;102906.84;;;17.97;29.80
49216;BME280;45943;53.148;8.204;2023-04-04T13:02:13;102901.78;;;17.93;30.26
49216;BME280;45943;53.148;8.204;2023-04-04T13:04:45;102904.63;;;18.02;28.66
49216;BME280;45943;53.148;8.204;2023-04-04T13:07:23;102901.41;;;17.97;29.22
49216;BME280;45943;53.148;8.204;2023-04-04T13:09:50;102892.75;;;17.70;29.05
49216;BME280;45943;53.148;8.204;2023-04-04T13:12:24;102883.28;;;17.16;27.88
49216;BME280;45943;53.148;8.204;2023-04-04T13:15:01;102883.19;;;17.29;28.23
49216;BME280;45943;53.148;8.204;2023-04-04T13:17:44;102874.78;;;16.60;28.96
49216;BME280;45943;53.148;8.204;2023-04-04T13:20:12;102869.16;;;16.14;29.81
49216;BME280;45943;53.148;8.204;2023-04-04T13:22:39;102863.84;;;16.75;30.62
49216;BME280;45943;53.148;8.204;2023-04-04T13:25:07;102860.50;;;17.65;30.11
49216;BME280;45943;53.148;8.204;2023-04-04T13:27:35;102855.13;;;18.32;28.04
49216;BME280;45943;53.148;8.204;2023-04-04T13:30:02;102861.53;;;17.98;27.63
49216;BME280;45943;53.148;8.204;2023-04-04T13:32:28;102861.44;;;17.53;28.92